Wetterdaten: Woche 05.03.18 - 11.03.18 (KW10)
Datum Zeit Temp. Aussen Temp. o. S. +5cm Feuchte Auss BlattFeu 1 Luftdruck Regen Sonnenschein Regendauer Solar Windben Empfang
05.03.2018 00:00 6,9 C 6,3 C 3,9 C 88 % 0 lf 993,2 hPa 0,0 l/m 0,00 h 0,00 h 0 W/m 19,6 km/h (3 Bft) 98,18 %
05.03.2018 01:00 6,8 C 6,5 C 3,7 C 87 % 0 lf 993,5 hPa 0,0 l/m 0,00 h 0,00 h 0 W/m 18,0 km/h (3 Bft) 95,44 %
05.03.2018 02:00 6,1 C 5,7 C 2,8 C 88 % 0 lf 993,4 hPa 0,0 l/m 0,00 h 0,00 h 0 W/m 15,3 km/h (3 Bft) 97,36 %
05.03.2018 03:00 5,7 C 5,3 C 2,2 C 89 % 1 lf 993,4 hPa 0,0 l/m 0,00 h 0,00 h 0 W/m 8,1 km/h (2 Bft) 95,80 %
05.03.2018 04:00 5,0 C 4,3 C 0,7 C 90 % 1 lf 993,2 hPa 0,0 l/m 0,00 h 0,00 h 0 W/m 10,6 km/h (2 Bft) 94,83 %
05.03.2018 05:00 4,4 C 4,2 C 1,7 C 91 % 1 lf 993,5 hPa 0,0 l/m 0,00 h 0,00 h 0 W/m 15,4 km/h (3 Bft) 98,41 %
05.03.2018 06:00 4,1 C 3,7 C 1,4 C 91 % 1 lf 993,7 hPa 0,0 l/m 0,00 h 0,00 h 0 W/m 14,0 km/h (3 Bft) 95,21 %
05.03.2018 07:00 3,5 C 3,3 C 0,9 C 91 % 1 lf 993,9 hPa 0,0 l/m 0,33 h 0,00 h 29 W/m 10,0 km/h (2 Bft) 95,29 %
05.03.2018 08:00 3,9 C 6,3 C 2,0 C 93 % 1 lf 994,2 hPa 0,0 l/m 1,00 h 0,00 h 153 W/m 11,0 km/h (2 Bft) 97,27 %
05.03.2018 09:00 6,6 C 10,4 C 6,5 C 88 % 0 lf 994,3 hPa 0,0 l/m 1,00 h 0,00 h 244 W/m 19,8 km/h (3 Bft) 95,77 %
05.03.2018 10:00 8,2 C 11,6 C 9,4 C 81 % 0 lf 994,3 hPa 0,0 l/m 1,00 h 0,00 h 328 W/m 23,6 km/h (4 Bft) 96,80 %
05.03.2018 11:00 9,0 C 11,1 C 9,2 C 78 % 0 lf 994,3 hPa 0,0 l/m 0,63 h 0,00 h 259 W/m 20,4 km/h (4 Bft) 97,66 %
05.03.2018 12:00 10,1 C 12,2 C 11,0 C 75 % 0 lf 994,0 hPa 0,0 l/m 0,83 h 0,00 h 292 W/m 16,2 km/h (3 Bft) 95,89 %
05.03.2018 13:00 11,5 C 14,3 C 12,2 C 68 % 0 lf 993,5 hPa 0,0 l/m 0,87 h 0,00 h 371 W/m 17,8 km/h (3 Bft) 95,28 %
05.03.2018 14:00 12,5 C 15,6 C 13,0 C 66 % 0 lf 992,9 hPa 0,0 l/m 0,70 h 0,00 h 340 W/m 12,8 km/h (3 Bft) 96,86 %
05.03.2018 15:00 12,6 C 14,6 C 11,5 C 64 % 0 lf 992,3 hPa 0,0 l/m 0,73 h 0,00 h 282 W/m 17,8 km/h (3 Bft) 96,85 %
05.03.2018 16:00 12,7 C 14,1 C 10,5 C 63 % 0 lf 991,8 hPa 0,0 l/m 1,00 h 0,00 h 231 W/m 16,3 km/h (3 Bft) 95,67 %
05.03.2018 17:00 12,1 C 11,6 C 9,0 C 63 % 0 lf 991,7 hPa 0,0 l/m 0,93 h 0,00 h 68 W/m 14,2 km/h (3 Bft) 95,61 %
05.03.2018 18:00 10,6 C 9,0 C 4,2 C 67 % 0 lf 991,6 hPa 0,0 l/m 0,07 h 0,00 h 11 W/m 6,7 km/h (2 Bft) 96,62 %
05.03.2018 19:00 8,6 C 6,6 C 2,3 C 72 % 0 lf 991,6 hPa 0,0 l/m 0,00 h 0,00 h 0 W/m 3,8 km/h (1 Bft) 96,95 %
05.03.2018 20:00 7,0 C 5,5 C 1,9 C 76 % 0 lf 991,8 hPa 0,0 l/m 0,00 h 0,00 h 0 W/m 3,1 km/h (1 Bft) 95,53 %
05.03.2018 21:00 5,9 C 5,0 C 0,2 C 80 % 0 lf 991,6 hPa 0,0 l/m 0,00 h 0,00 h 0 W/m 6,6 km/h (2 Bft) 98,66 %
05.03.2018 22:00 4,8 C 3,7 C -0,7 C 82 % 0 lf 991,5 hPa 0,0 l/m 0,00 h 0,00 h 0 W/m 6,1 km/h (2 Bft) 94,55 %
05.03.2018 23:00 4,3 C 4,2 C -0,2 C 86 % 0 lf 991,2 hPa 0,0 l/m 0,00 h 0,00 h 0 W/m 9,5 km/h (2 Bft) 96,44 %
06.03.2018 00:00 4,3 C 4,4 C 1,2 C 86 % 0 lf 990,8 hPa 0,0 l/m 0,00 h 0,07 h 0 W/m 13,5 km/h (3 Bft) 97,60 %
06.03.2018 01:00 4,4 C 4,2 C 1,4 C 85 % 0 lf 990,6 hPa 0,0 l/m 0,00 h 0,00 h 0 W/m 12,8 km/h (3 Bft) 96,44 %
06.03.2018 02:00 3,9 C 3,5 C 0,9 C 86 % 0 lf 990,2 hPa 0,0 l/m 0,00 h 0,00 h 0 W/m 11,3 km/h (2 Bft) 94,45 %
06.03.2018 03:00 4,0 C 4,3 C 2,5 C 88 % 0 lf 989,8 hPa 0,0 l/m 0,00 h 0,00 h 0 W/m 14,6 km/h (3 Bft) 98,29 %
06.03.2018 04:00 4,7 C 5,0 C 3,3 C 87 % 0 lf 989,6 hPa 0,0 l/m 0,00 h 0,00 h 0 W/m 14,4 km/h (3 Bft) 96,92 %
06.03.2018 05:00 4,9 C 4,9 C 3,2 C 86 % 0 lf 989,4 hPa 0,0 l/m 0,00 h 0,00 h 0 W/m 15,8 km/h (3 Bft) 97,49 %
06.03.2018 06:00 4,7 C 4,4 C 2,7 C 86 % 0 lf 989,4 hPa 0,0 l/m 0,00 h 0,00 h 0 W/m 15,5 km/h (3 Bft) 94,95 %
06.03.2018 07:00 4,6 C 4,4 C 3,2 C 86 % 0 lf 989,6 hPa 0,0 l/m 0,00 h 0,00 h 14 W/m 16,2 km/h (3 Bft) 96,76 %
06.03.2018 08:00 4,7 C 5,5 C 3,8 C 86 % 0 lf 989,7 hPa 0,0 l/m 0,43 h 0,00 h 98 W/m 17,6 km/h (3 Bft) 97,46 %
06.03.2018 09:00 6,1 C 8,7 C 7,1 C 84 % 0 lf 989,7 hPa 0,0 l/m 1,00 h 0,00 h 270 W/m 21,2 km/h (4 Bft) 96,58 %
06.03.2018 10:00 7,5 C 10,5 C 9,0 C 80 % 0 lf 989,7 hPa 0,0 l/m 0,93 h 0,00 h 290 W/m 17,9 km/h (3 Bft) 94,94 %
06.03.2018 11:00 9,4 C 13,0 C 11,3 C 76 % 0 lf 989,8 hPa 0,0 l/m 1,00 h 0,00 h 320 W/m 11,7 km/h (2 Bft) 98,04 %
06.03.2018 12:00 11,0 C 15,1 C 12,1 C 73 % 0 lf 989,8 hPa 0,0 l/m 1,00 h 0,00 h 354 W/m 14,3 km/h (3 Bft) 95,17 %
06.03.2018 13:00 11,8 C 15,8 C 12,1 C 73 % 0 lf 989,7 hPa 0,0 l/m 1,00 h 0,00 h 320 W/m 12,8 km/h (3 Bft) 95,52 %
06.03.2018 14:00 12,2 C 16,2 C 12,0 C 72 % 0 lf 989,4 hPa 0,0 l/m 1,00 h 0,00 h 308 W/m 10,8 km/h (2 Bft) 97,44 %
06.03.2018 15:00 12,1 C 13,6 C 11,2 C 72 % 0 lf 989,4 hPa 0,0 l/m 0,23 h 0,00 h 182 W/m 8,4 km/h (2 Bft) 96,23 %
06.03.2018 16:00 11,9 C 12,6 C 10,7 C 74 % 0 lf 989,4 hPa 0,0 l/m 0,23 h 0,00 h 116 W/m 10,5 km/h (2 Bft) 96,59 %
06.03.2018 17:00 11,1 C 10,9 C 9,2 C 77 % 0 lf 989,7 hPa 0,0 l/m 0,10 h 0,00 h 52 W/m 12,3 km/h (3 Bft) 96,44 %
06.03.2018 18:00 10,3 C 9,4 C 6,9 C 78 % 0 lf 990,2 hPa 0,0 l/m 0,23 h 0,00 h 19 W/m 5,3 km/h (1 Bft) 95,31 %
06.03.2018 19:00 9,5 C 8,4 C 5,7 C 80 % 0 lf 990,6 hPa 0,0 l/m 0,00 h 0,00 h 0 W/m 3,0 km/h (1 Bft) 97,93 %
06.03.2018 20:00 8,6 C 7,6 C 4,9 C 81 % 0 lf 990,6 hPa 0,0 l/m 0,00 h 0,00 h 0 W/m 1,1 km/h (1 Bft) 96,15 %
06.03.2018 21:00 7,9 C 6,6 C 4,2 C 83 % 1 lf 991,0 hPa 0,0 l/m 0,00 h 0,03 h 0 W/m 1,7 km/h (1 Bft) 97,22 %
06.03.2018 22:00 7,1 C 5,4 C 2,6 C 85 % 1 lf 991,2 hPa 0,0 l/m 0,00 h 0,00 h 0 W/m 0,8 km/h (0 Bft) 94,87 %
06.03.2018 23:00 5,9 C 4,5 C 1,9 C 86 % 2 lf 991,2 hPa 0,0 l/m 0,00 h 0,00 h 0 W/m 0,0 km/h (0 Bft) 97,22 %
07.03.2018 00:00 5,3 C 4,7 C 2,9 C 89 % 2 lf 991,4 hPa 0,0 l/m 0,00 h 0,00 h 0 W/m 1,2 km/h (1 Bft) 97,24 %
07.03.2018 01:00 5,1 C 4,9 C 3,0 C 91 % 1 lf 991,6 hPa 0,0 l/m 0,00 h 0,00 h 0 W/m 0,2 km/h (0 Bft) 96,23 %
07.03.2018 02:00 4,9 C 3,7 C 1,7 C 92 % 2 lf 991,6 hPa 0,0 l/m 0,00 h 0,00 h 0 W/m 7,2 km/h (2 Bft) 94,94 %
07.03.2018 03:00 4,3 C 3,5 C 1,4 C 92 % 2 lf 991,4 hPa 0,0 l/m 0,00 h 0,00 h 0 W/m 1,3 km/h (1 Bft) 95,66 %
07.03.2018 04:00 3,8 C 2,7 C 0,3 C 92 % 4 lf 991,3 hPa 0,0 l/m 0,00 h 0,00 h 0 W/m 2,4 km/h (1 Bft) 98,40 %
07.03.2018 05:00 2,9 C 1,8 C -0,5 C 92 % 12 lf 991,2 hPa 0,0 l/m 0,00 h 0,00 h 0 W/m 3,0 km/h (1 Bft) 96,96 %
07.03.2018 06:00 2,6 C 2,5 C 0,7 C 93 % 15 lf 991,5 hPa 0,0 l/m 0,00 h 0,00 h 0 W/m 5,7 km/h (1 Bft) 94,26 %
07.03.2018 07:00 3,0 C 3,4 C 1,6 C 95 % 6 lf 991,6 hPa 0,0 l/m 0,10 h 0,00 h 24 W/m 3,8 km/h (1 Bft) 97,18 %
07.03.2018 08:00 3,9 C 7,0 C 3,4 C 96 % 1 lf 991,9 hPa 0,0 l/m 0,87 h 0,00 h 155 W/m 9,1 km/h (2 Bft) 97,53 %
07.03.2018 09:00 6,4 C 10,9 C 7,9 C 90 % 0 lf 992,3 hPa 0,0 l/m 0,83 h 0,00 h 290 W/m 16,1 km/h (3 Bft) 94,33 %
07.03.2018 10:00 8,8 C 13,7 C 11,7 C 79 % 0 lf 992,7 hPa 0,0 l/m 0,93 h 0,00 h 422 W/m 18,9 km/h (3 Bft) 97,16 %
07.03.2018 11:00 8,7 C 9,6 C 8,9 C 80 % 3 lf 993,3 hPa 0,0 l/m 0,10 h 0,27 h 182 W/m 17,3 km/h (3 Bft) 97,92 %
07.03.2018 12:00 7,6 C 6,3 C 5,9 C 88 % 15 lf 993,5 hPa 0,6 l/m 0,00 h 0,80 h 106 W/m 11,1 km/h (2 Bft) 94,53 %
07.03.2018 13:00 7,1 C 6,9 C 6,4 C 92 % 6 lf 993,5 hPa 0,0 l/m 0,00 h 0,03 h 120 W/m 10,5 km/h (2 Bft) 96,38 %
07.03.2018 14:00 7,6 C 7,8 C 7,4 C 93 % 0 lf 993,4 hPa 0,0 l/m 0,00 h 0,00 h 132 W/m 12,2 km/h (2 Bft) 96,98 %
07.03.2018 15:00 8,0 C 8,4 C 7,3 C 91 % 0 lf 993,5 hPa 0,0 l/m 0,00 h 0,07 h 108 W/m 11,0 km/h (2 Bft) 97,08 %
07.03.2018 16:00 8,5 C 9,0 C 7,2 C 85 % 0 lf 993,6 hPa 0,0 l/m 0,00 h 0,00 h 66 W/m 11,4 km/h (2 Bft) 94,16 %
07.03.2018 17:00 8,0 C 7,5 C 6,2 C 83 % 1 lf 994,2 hPa 0,0 l/m 0,00 h 0,00 h 15 W/m 16,5 km/h (3 Bft) 97,86 %
07.03.2018 18:00 6,9 C 6,5 C 5,1 C 87 % 1 lf 994,9 hPa 0,0 l/m 0,00 h 0,17 h 6 W/m 19,0 km/h (3 Bft) 96,44 %
07.03.2018 19:00 6,1 C 5,3 C 4,1 C 90 % 11 lf 995,4 hPa 0,4 l/m 0,00 h 0,43 h 0 W/m 17,0 km/h (3 Bft) 96,80 %
07.03.2018 20:00 5,6 C 5,0 C 3,9 C 93 % 15 lf 995,7 hPa 0,2 l/m 0,00 h 0,20 h 0 W/m 14,2 km/h (3 Bft) 95,15 %
07.03.2018 21:00 5,6 C 4,9 C 3,8 C 95 % 15 lf 996,4 hPa 0,2 l/m 0,00 h 0,83 h 0 W/m 24,2 km/h (4 Bft) 96,45 %
07.03.2018 22:00 4,9 C 4,0 C 3,3 C 94 % 15 lf 997,5 hPa 0,4 l/m 0,00 h 0,97 h 0 W/m 26,6 km/h (4 Bft) 96,76 %
07.03.2018 23:00 4,8 C 4,3 C 3,3 C 95 % 15 lf 998,2 hPa 0,2 l/m 0,00 h 0,43 h 0 W/m 22,0 km/h (4 Bft) 95,96 %
08.03.2018 00:00 4,9 C 4,4 C 3,3 C 96 % 15 lf 998,9 hPa 0,2 l/m 0,00 h 0,33 h 0 W/m 22,4 km/h (4 Bft) 96,42 %
08.03.2018 01:00 5,0 C 4,4 C 3,3 C 95 % 15 lf 999,6 hPa 0,2 l/m 0,00 h 0,07 h 0 W/m 27,8 km/h (4 Bft) 96,01 %
08.03.2018 02:00 4,6 C 3,8 C 2,7 C 93 % 5 lf 1000,0 hPa 0,0 l/m 0,00 h 0,00 h 0 W/m 25,6 km/h (4 Bft) 96,94 %
08.03.2018 03:00 4,0 C 3,3 C 1,9 C 93 % 1 lf 1000,1 hPa 0,0 l/m 0,00 h 0,00 h 0 W/m 22,0 km/h (4 Bft) 97,15 %
08.03.2018 04:00 3,6 C 2,8 C 1,3 C 92 % 1 lf 1000,2 hPa 0,0 l/m 0,00 h 0,00 h 0 W/m 15,3 km/h (3 Bft) 94,59 %
08.03.2018 05:00 3,0 C 2,0 C 0,3 C 92 % 1 lf 1000,2 hPa 0,0 l/m 0,00 h 0,00 h 0 W/m 8,7 km/h (2 Bft) 96,15 %
08.03.2018 06:00 2,4 C 1,9 C -0,1 C 92 % 2 lf 1000,4 hPa 0,0 l/m 0,00 h 0,00 h 3 W/m 5,8 km/h (2 Bft) 98,94 %
08.03.2018 07:00 2,2 C 2,2 C -0,0 C 93 % 1 lf 1000,6 hPa 0,0 l/m 0,43 h 0,00 h 33 W/m 4,8 km/h (1 Bft) 94,70 %
08.03.2018 08:00 3,4 C 6,2 C 2,0 C 93 % 0 lf 1000,4 hPa 0,0 l/m 1,00 h 0,00 h 181 W/m 22,2 km/h (4 Bft) 96,70 %
08.03.2018 09:00 5,6 C 6,8 C 4,2 C 87 % 0 lf 1000,0 hPa 0,0 l/m 0,30 h 0,03 h 159 W/m 27,1 km/h (4 Bft) 96,18 %
08.03.2018 10:00 7,0 C 9,0 C 7,7 C 84 % 0 lf 999,5 hPa 0,0 l/m 0,77 h 0,00 h 276 W/m 25,7 km/h (4 Bft) 96,18 %
08.03.2018 11:00 8,2 C 9,2 C 8,6 C 81 % 0 lf 998,9 hPa 0,0 l/m 0,10 h 0,10 h 209 W/m 31,9 km/h (5 Bft) 95,94 %
08.03.2018 12:00 9,0 C 8,9 C 7,7 C 78 % 4 lf 998,3 hPa 0,2 l/m 0,00 h 0,33 h 112 W/m 33,9 km/h (5 Bft) 96,57 %
08.03.2018 13:00 8,1 C 6,3 C 5,6 C 84 % 15 lf 998,1 hPa 0,6 l/m 0,00 h 0,97 h 79 W/m 29,8 km/h (5 Bft) 96,20 %
08.03.2018 14:00 7,2 C 6,0 C 5,4 C 90 % 15 lf 997,8 hPa 1,4 l/m 0,00 h 1,00 h 69 W/m 26,7 km/h (4 Bft) 98,34 %
08.03.2018 15:00 6,6 C 5,8 C 5,2 C 92 % 15 lf 997,3 hPa 1,2 l/m 0,07 h 0,87 h 94 W/m 24,2 km/h (4 Bft) 93,89 %
08.03.2018 16:00 6,7 C 5,7 C 4,7 C 90 % 9 lf 997,2 hPa 0,4 l/m 0,00 h 0,60 h 43 W/m 35,5 km/h (5 Bft) 97,29 %
08.03.2018 17:00 6,6 C 6,5 C 4,2 C 85 % 0 lf 997,7 hPa 0,0 l/m 0,43 h 0,00 h 84 W/m 29,3 km/h (5 Bft) 97,80 %
08.03.2018 18:00 6,0 C 5,7 C 3,3 C 84 % 0 lf 998,0 hPa 0,0 l/m 0,00 h 0,00 h 11 W/m 27,4 km/h (4 Bft) 95,24 %
08.03.2018 19:00 5,4 C 5,0 C 2,9 C 87 % 0 lf 998,9 hPa 0,0 l/m 0,00 h 0,00 h 0 W/m 32,0 km/h (5 Bft) 94,85 %
08.03.2018 20:00 5,3 C 4,5 C 3,0 C 89 % 12 lf 1000,2 hPa 0,4 l/m 0,00 h 0,20 h 0 W/m 24,9 km/h (4 Bft) 99,02 %
08.03.2018 21:00 4,8 C 4,2 C 2,2 C 90 % 14 lf 1001,1 hPa 0,0 l/m 0,00 h 0,00 h 0 W/m 23,5 km/h (4 Bft) 94,80 %
08.03.2018 22:00 4,5 C 3,9 C 1,9 C 88 % 0 lf 1001,8 hPa 0,0 l/m 0,00 h 0,00 h 0 W/m 26,6 km/h (4 Bft) 97,86 %
08.03.2018 23:00 4,2 C 3,8 C 1,7 C 87 % 0 lf 1002,5 hPa 0,0 l/m 0,00 h 0,00 h 0 W/m 25,0 km/h (4 Bft) 96,44 %
09.03.2018 00:00 4,0 C 3,6 C 1,7 C 88 % 0 lf 1002,9 hPa 0,0 l/m 0,00 h 0,00 h 0 W/m 28,0 km/h (4 Bft) 94,33 %
09.03.2018 01:00 3,7 C 3,2 C 1,1 C 89 % 0 lf 1003,5 hPa 0,0 l/m 0,00 h 0,00 h 0 W/m 22,8 km/h (4 Bft) 98,91 %
09.03.2018 02:00 3,5 C 3,0 C 1,1 C 90 % 0 lf 1003,7 hPa 0,0 l/m 0,00 h 0,00 h 0 W/m 18,6 km/h (3 Bft) 96,31 %
09.03.2018 03:00 3,4 C 3,0 C 1,0 C 91 % 1 lf 1003,9 hPa 0,0 l/m 0,00 h 0,00 h 0 W/m 15,2 km/h (3 Bft) 95,34 %
09.03.2018 04:00 3,2 C 2,7 C 0,7 C 91 % 1 lf 1004,3 hPa 0,0 l/m 0,00 h 0,00 h 0 W/m 12,7 km/h (3 Bft) 96,47 %
09.03.2018 05:00 2,8 C 2,2 C -0,1 C 92 % 1 lf 1004,7 hPa 0,0 l/m 0,00 h 0,00 h 0 W/m 7,6 km/h (2 Bft) 96,94 %
09.03.2018 06:00 2,6 C 2,2 C 0,1 C 93 % 1 lf 1005,1 hPa 0,0 l/m 0,00 h 0,00 h 6 W/m 5,6 km/h (1 Bft) 96,51 %
09.03.2018 07:00 2,4 C 2,9 C 0,3 C 93 % 1 lf 1005,5 hPa 0,0 l/m 0,43 h 0,00 h 38 W/m 5,6 km/h (1 Bft) 96,36 %
09.03.2018 08:00 3,3 C 4,9 C 2,8 C 94 % 0 lf 1006,0 hPa 0,0 l/m 0,20 h 0,00 h 99 W/m 6,3 km/h (2 Bft) 95,14 %
09.03.2018 09:00 5,1 C 8,0 C 5,8 C 91 % 0 lf 1006,2 hPa 0,0 l/m 0,93 h 0,00 h 207 W/m 13,5 km/h (3 Bft) 97,52 %
09.03.2018 10:00 7,1 C 11,4 C 8,5 C 85 % 0 lf 1006,3 hPa 0,0 l/m 1,00 h 0,00 h 299 W/m 18,0 km/h (3 Bft) 95,10 %
09.03.2018 11:00 8,5 C 12,4 C 10,2 C 79 % 0 lf 1006,4 hPa 0,2 l/m 0,90 h 0,00 h 355 W/m 19,5 km/h (3 Bft) 96,08 %
09.03.2018 12:00 9,8 C 14,2 C 11,1 C 74 % 0 lf 1006,2 hPa 0,0 l/m 1,00 h 0,00 h 372 W/m 14,7 km/h (3 Bft) 98,65 %
09.03.2018 13:00 10,8 C 15,3 C 11,6 C 67 % 0 lf 1005,7 hPa 0,0 l/m 0,97 h 0,00 h 404 W/m 15,8 km/h (3 Bft) 95,02 %
09.03.2018 14:00 10,8 C 11,6 C 10,8 C 67 % 0 lf 1005,4 hPa 0,0 l/m 0,47 h 0,00 h 193 W/m 14,5 km/h (3 Bft) 96,16 %
09.03.2018 15:00 9,8 C 10,0 C 9,2 C 74 % 0 lf 1005,1 hPa 0,0 l/m 0,00 h 0,00 h 110 W/m 15,1 km/h (3 Bft) 97,79 %
09.03.2018 16:00 9,4 C 9,3 C 8,4 C 77 % 0 lf 1004,8 hPa 0,0 l/m 0,00 h 0,13 h 58 W/m 15,8 km/h (3 Bft) 95,73 %
09.03.2018 17:00 8,9 C 8,2 C 7,0 C 81 % 0 lf 1004,7 hPa 0,0 l/m 0,00 h 0,50 h 23 W/m 13,3 km/h (3 Bft) 95,30 %
09.03.2018 18:00 8,3 C 7,3 C 5,8 C 86 % 0 lf 1004,4 hPa 0,0 l/m 0,00 h 0,30 h 7 W/m 13,8 km/h (3 Bft) 98,44 %
09.03.2018 19:00 7,8 C 7,6 C 6,1 C 89 % 0 lf 1003,8 hPa 0,0 l/m 0,00 h 0,07 h 0 W/m 18,0 km/h (3 Bft) 96,23 %
09.03.2018 20:00 7,8 C 7,5 C 6,2 C 91 % 0 lf 1003,3 hPa 0,0 l/m 0,00 h 0,20 h 0 W/m 14,3 km/h (3 Bft) 95,23 %
09.03.2018 21:00 7,8 C 6,7 C 6,1 C 93 % 11 lf 1002,9 hPa 0,2 l/m 0,00 h 1,00 h 0 W/m 14,2 km/h (3 Bft) 97,79 %
09.03.2018 22:00 7,7 C 7,2 C 6,1 C 95 % 15 lf 1002,4 hPa 0,8 l/m 0,00 h 1,00 h 0 W/m 13,7 km/h (3 Bft) 96,73 %
09.03.2018 23:00 7,5 C 7,2 C 6,1 C 97 % 15 lf 1001,8 hPa 0,6 l/m 0,00 h 0,90 h 0 W/m 16,7 km/h (3 Bft) 95,51 %
10.03.2018 00:00 7,4 C 7,2 C 6,1 C 97 % 15 lf 1001,3 hPa 0,2 l/m 0,00 h 0,93 h 0 W/m 16,6 km/h (3 Bft) 97,39 %
10.03.2018 01:00 7,6 C 7,2 C 6,1 C 98 % 15 lf 1001,0 hPa 0,4 l/m 0,00 h 1,00 h 0 W/m 15,6 km/h (3 Bft) 94,59 %
10.03.2018 02:00 7,6 C 7,2 C 6,1 C 98 % 15 lf 1000,6 hPa 0,4 l/m 0,00 h 0,53 h 0 W/m 12,6 km/h (3 Bft) 97,65 %
10.03.2018 03:00 7,8 C 7,3 C 6,4 C 98 % 15 lf 999,9 hPa 0,4 l/m 0,00 h 0,27 h 0 W/m 13,6 km/h (3 Bft) 96,08 %
10.03.2018 04:00 8,1 C 7,8 C 6,7 C 99 % 15 lf 999,3 hPa 0,0 l/m 0,00 h 0,00 h 0 W/m 16,8 km/h (3 Bft) 95,97 %
10.03.2018 05:00 7,9 C 7,3 C 6,1 C 99 % 15 lf 998,9 hPa 0,0 l/m 0,00 h 0,00 h 0 W/m 16,0 km/h (3 Bft) 97,60 %
10.03.2018 06:00 7,8 C 7,3 C 6,1 C 99 % 15 lf 998,8 hPa 0,0 l/m 0,00 h 0,00 h 4 W/m 14,1 km/h (3 Bft) 97,16 %
10.03.2018 07:00 7,9 C 7,8 C 6,7 C 99 % 15 lf 998,9 hPa 0,0 l/m 0,00 h 0,00 h 26 W/m 13,6 km/h (3 Bft) 94,13 %
10.03.2018 08:00 8,5 C 10,1 C 7,5 C 99 % 11 lf 999,1 hPa 0,0 l/m 0,53 h 0,00 h 163 W/m 14,5 km/h (3 Bft) 98,00 %
10.03.2018 09:00 10,0 C 11,0 C 9,4 C 99 % 0 lf 999,2 hPa 0,0 l/m 0,00 h 0,00 h 125 W/m 14,4 km/h (3 Bft) 95,87 %
10.03.2018 10:00 11,1 C 12,4 C 10,4 C 95 % 0 lf 999,4 hPa 0,0 l/m 0,00 h 0,00 h 153 W/m 13,4 km/h (3 Bft) 96,52 %
10.03.2018 11:00 12,6 C 14,2 C 12,2 C 89 % 0 lf 999,4 hPa 0,0 l/m 0,00 h 0,00 h 186 W/m 13,6 km/h (3 Bft) 94,78 %
10.03.2018 12:00 14,2 C 15,8 C 14,8 C 81 % 0 lf 999,2 hPa 0,0 l/m 0,37 h 0,00 h 257 W/m 17,3 km/h (3 Bft) 97,74 %
10.03.2018 13:00 15,2 C 17,1 C 15,9 C 77 % 0 lf 999,0 hPa 0,0 l/m 0,57 h 0,00 h 301 W/m 18,6 km/h (3 Bft) 96,06 %
10.03.2018 14:00 16,0 C 16,8 C 15,9 C 75 % 0 lf 998,6 hPa 0,0 l/m 0,43 h 0,00 h 221 W/m 20,0 km/h (4 Bft) 94,14 %
10.03.2018 15:00 15,6 C 16,0 C 15,0 C 76 % 0 lf 998,8 hPa 0,0 l/m 0,00 h 0,00 h 158 W/m 20,9 km/h (4 Bft) 97,94 %
10.03.2018 16:00 15,0 C 14,7 C 13,4 C 79 % 0 lf 998,9 hPa 0,0 l/m 0,00 h 0,07 h 74 W/m 19,0 km/h (3 Bft) 98,43 %
10.03.2018 17:00 14,3 C 13,9 C 12,7 C 83 % 0 lf 999,0 hPa 0,0 l/m 0,20 h 0,20 h 60 W/m 17,0 km/h (3 Bft) 92,47 %
10.03.2018 18:00 13,0 C 11,5 C 10,4 C 88 % 1 lf 999,2 hPa 0,0 l/m 0,00 h 0,70 h 14 W/m 19,3 km/h (3 Bft) 98,56 %
10.03.2018 19:00 12,0 C 11,2 C 9,9 C 92 % 1 lf 999,3 hPa 0,2 l/m 0,00 h 0,00 h 0 W/m 19,8 km/h (4 Bft) 96,89 %
10.03.2018 20:00 11,8 C 11,7 C 10,0 C 92 % 0 lf 999,5 hPa 0,0 l/m 0,00 h 0,00 h 0 W/m 19,2 km/h (3 Bft) 94,73 %
10.03.2018 21:00 11,8 C 11,7 C 10,0 C 92 % 0 lf 999,5 hPa 0,0 l/m 0,00 h 0,00 h 0 W/m 18,1 km/h (3 Bft) 96,45 %
10.03.2018 22:00 11,8 C 11,7 C 10,0 C 92 % 0 lf 999,3 hPa 0,0 l/m 0,00 h 0,00 h 0 W/m 13,7 km/h (3 Bft) 97,58 %
10.03.2018 23:00 11,7 C 11,5 C 9,9 C 92 % 0 lf 998,9 hPa 0,0 l/m 0,00 h 0,00 h 0 W/m 11,4 km/h (2 Bft) 95,53 %
11.03.2018 00:00 11,1 C 10,4 C 8,6 C 93 % 1 lf 998,8 hPa 0,0 l/m 0,00 h 0,00 h 0 W/m 11,6 km/h (2 Bft) 92,44 %
11.03.2018 01:00 10,3 C 9,4 C 7,2 C 94 % 3 lf 998,5 hPa 0,0 l/m 0,00 h 0,00 h 0 W/m 9,4 km/h (2 Bft) 94,62 %
11.03.2018 02:00 9,5 C 8,6 C 6,2 C 95 % 13 lf 997,7 hPa 0,0 l/m 0,00 h 0,00 h 0 W/m 10,1 km/h (2 Bft) 96,66 %
11.03.2018 03:00 9,1 C 8,4 C 6,3 C 96 % 15 lf 996,5 hPa 0,0 l/m 0,00 h 0,00 h 0 W/m 12,0 km/h (2 Bft) 97,74 %
11.03.2018 04:00 9,0 C 8,4 C 6,5 C 97 % 15 lf 995,8 hPa 0,0 l/m 0,00 h 0,00 h 0 W/m 14,5 km/h (3 Bft) 93,56 %
11.03.2018 05:00 9,0 C 8,8 C 6,9 C 97 % 15 lf 994,8 hPa 0,0 l/m 0,00 h 0,00 h 0 W/m 19,7 km/h (3 Bft) 96,79 %
11.03.2018 06:00 9,3 C 9,3 C 7,6 C 98 % 15 lf 994,1 hPa 0,0 l/m 0,00 h 0,03 h 7 W/m 23,9 km/h (4 Bft) 98,64 %
11.03.2018 07:00 9,6 C 9,6 C 8,1 C 98 % 8 lf 993,3 hPa 0,0 l/m 0,00 h 0,00 h 27 W/m 23,4 km/h (4 Bft) 94,38 %
11.03.2018 08:00 10,1 C 10,5 C 9,3 C 97 % 1 lf 992,7 hPa 0,0 l/m 0,00 h 0,00 h 71 W/m 26,0 km/h (4 Bft) 97,30 %
11.03.2018 09:00 10,6 C 10,2 C 9,2 C 96 % 1 lf 992,9 hPa 0,0 l/m 0,00 h 0,57 h 45 W/m 27,7 km/h (4 Bft) 96,40 %
11.03.2018 10:00 11,1 C 11,2 C 9,8 C 94 % 1 lf 992,8 hPa 0,2 l/m 0,00 h 0,20 h 48 W/m 28,4 km/h (4 Bft) 96,88 %
11.03.2018 11:00 12,0 C 12,6 C 11,5 C 92 % 0 lf 992,7 hPa 0,0 l/m 0,00 h 0,00 h 98 W/m 21,3 km/h (4 Bft) 94,92 %
11.03.2018 12:00 14,0 C 15,6 C 14,7 C 86 % 0 lf 992,9 hPa 0,0 l/m 0,00 h 0,00 h 233 W/m 24,1 km/h (4 Bft) 96,90 %
11.03.2018 13:00 15,2 C 16,0 C 15,1 C 77 % 0 lf 992,6 hPa 0,0 l/m 0,00 h 0,00 h 202 W/m 23,2 km/h (4 Bft) 97,16 %
11.03.2018 14:00 15,3 C 15,9 C 15,0 C 75 % 0 lf 992,1 hPa 0,0 l/m 0,00 h 0,00 h 168 W/m 18,9 km/h (3 Bft) 96,01 %
11.03.2018 15:00 15,4 C 16,9 C 15,2 C 76 % 0 lf 992,0 hPa 0,0 l/m 0,53 h 0,00 h 227 W/m 17,5 km/h (3 Bft) 95,67 %
11.03.2018 16:00 15,8 C 16,3 C 14,4 C 73 % 0 lf 992,0 hPa 0,0 l/m 0,73 h 0,00 h 170 W/m 19,0 km/h (3 Bft) 98,42 %
11.03.2018 17:00 15,1 C 14,7 C 12,4 C 75 % 0 lf 992,0 hPa 0,0 l/m 0,00 h 0,00 h 58 W/m 10,9 km/h (2 Bft) 94,67 %
11.03.2018 18:00 14,2 C 12,7 C 8,6 C 78 % 0 lf 991,9 hPa 0,0 l/m 0,03 h 0,00 h 15 W/m 6,0 km/h (2 Bft) 95,81 %
11.03.2018 19:00 12,7 C 11,4 C 7,1 C 82 % 0 lf 992,1 hPa 0,0 l/m 0,00 h 0,00 h 0 W/m 6,6 km/h (2 Bft) 97,93 %
11.03.2018 20:00 11,6 C 10,7 C 7,1 C 87 % 1 lf 991,9 hPa 0,0 l/m 0,00 h 0,00 h 0 W/m 8,7 km/h (2 Bft) 95,31 %
11.03.2018 21:00 10,6 C 9,6 C 6,9 C 89 % 1 lf 991,8 hPa 0,0 l/m 0,00 h 0,00 h 0 W/m 9,7 km/h (2 Bft) 96,08 %
11.03.2018 22:00 9,9 C 9,4 C 6,6 C 90 % 1 lf 991,8 hPa 0,0 l/m 0,00 h 0,00 h 0 W/m 10,5 km/h (2 Bft) 97,00 %
11.03.2018 23:00 9,6 C 9,1 C 6,4 C 91 % 1 lf 991,6 hPa 0,0 l/m 0,00 h 0,00 h 0 W/m 9,7 km/h (2 Bft) 95,93 %
Min-Datum _ 08.03.18 07.03.18 05.03.18 05.03.18 05.03.18 06.03.18 - - - - 05.03.18 11.03.18
_ Min-Zeit 07:26 05:02 22:34 15:08 00:00 05:18 - - - - 19:34 00:02
Minimum _ 2,1 C 1,7 C -1,1 C 62 % 0 lf 989,3 hPa - - - - 0,0 km/h (0 Bft) 6,67 %
Max-Datum _ 10.03.18 05.03.18 10.03.18 10.03.18 07.03.18 09.03.18 08.03.18 06.03.18 10.03.18 09.03.18 08.03.18 05.03.18
_ Max-Zeit 14:20 14:44 13:36 04:00 05:50 10:46 14:02 10:38 00:08 13:36 16:24 00:00
Maximum _ 16,1 C 20,0 C 16,7 C 99 % 15 lf 1006,5 hPa 1,4 l/m 0,07 h 0,07 h 713 W/m 54,1 km/h
SW (7 Bft)
100,00 %
Durchschnitt _ 8,0 C 8,2 C 6,2 C 87 % 3 lf 996,2 hPa #10,2 l/m #31:30 h #17:32 h 150 W/m 15,3 km/h (3 Bft) 96,36 %
© 2018 W. Hausmann